sensor_id;sensor_type;location;lat;lon;timestamp;temperature;humidity
32612;DHT22;19030;49.478;8.986;2022-11-25T00:01:37;3.80;99.90
32612;DHT22;19030;49.478;8.986;2022-11-25T00:03:38;3.80;99.90
32612;DHT22;19030;49.478;8.986;2022-11-25T00:05:39;3.80;99.90
32612;DHT22;19030;49.478;8.986;2022-11-25T00:07:40;3.80;99.90
32612;DHT22;19030;49.478;8.986;2022-11-25T00:09:40;3.80;99.90
32612;DHT22;19030;49.478;8.986;2022-11-25T00:11:41;3.80;99.90
32612;DHT22;19030;49.478;8.986;2022-11-25T00:13:43;3.80;99.90
32612;DHT22;19030;49.478;8.986;2022-11-25T00:15:44;3.80;99.90
32612;DHT22;19030;49.478;8.986;2022-11-25T00:17:44;3.70;99.90
32612;DHT22;19030;49.478;8.986;2022-11-25T00:19:45;3.70;99.90
32612;DHT22;19030;49.478;8.986;2022-11-25T00:21:48;3.70;99.90
32612;DHT22;19030;49.478;8.986;2022-11-25T00:23:56;3.70;99.90
32612;DHT22;19030;49.478;8.986;2022-11-25T00:25:57;3.70;99.90
32612;DHT22;19030;49.478;8.986;2022-11-25T00:27:57;3.70;99.90
32612;DHT22;19030;49.478;8.986;2022-11-25T00:29:58;3.70;99.90
32612;DHT22;19030;49.478;8.986;2022-11-25T00:31:58;3.60;99.90
32612;DHT22;19030;49.478;8.986;2022-11-25T00:33:59;3.60;99.90
32612;DHT22;19030;49.478;8.986;2022-11-25T00:36:01;3.60;99.90
32612;DHT22;19030;49.478;8.986;2022-11-25T00:38:02;3.60;99.90
32612;DHT22;19030;49.478;8.986;2022-11-25T00:40:06;3.60;99.90
32612;DHT22;19030;49.478;8.986;2022-11-25T00:42:08;3.60;99.90
32612;DHT22;19030;49.478;8.986;2022-11-25T00:44:27;3.60;99.90
32612;DHT22;19030;49.478;8.986;2022-11-25T00:46:39;3.60;99.90
32612;DHT22;19030;49.478;8.986;2022-11-25T00:48:40;3.60;99.90
32612;DHT22;19030;49.478;8.986;2022-11-25T00:50:41;3.60;99.90
32612;DHT22;19030;49.478;8.986;2022-11-25T00:52:42;3.50;99.90
32612;DHT22;19030;49.478;8.986;2022-11-25T00:54:43;3.50;99.90
32612;DHT22;19030;49.478;8.986;2022-11-25T00:56:47;3.50;99.90
32612;DHT22;19030;49.478;8.986;2022-11-25T00:58:47;3.60;99.90
32612;DHT22;19030;49.478;8.986;2022-11-25T01:00:48;3.60;99.90
32612;DHT22;19030;49.478;8.986;2022-11-25T01:02:48;3.60;99.90
32612;DHT22;19030;49.478;8.986;2022-11-25T01:04:49;3.50;99.90
32612;DHT22;19030;49.478;8.986;2022-11-25T01:06:50;3.50;99.90
32612;DHT22;19030;49.478;8.986;2022-11-25T01:08:50;3.50;99.90
32612;DHT22;19030;49.478;8.986;2022-11-25T01:11:07;3.40;99.90
32612;DHT22;19030;49.478;8.986;2022-11-25T01:13:07;3.50;99.90
32612;DHT22;19030;49.478;8.986;2022-11-25T01:15:09;3.50;99.90
32612;DHT22;19030;49.478;8.986;2022-11-25T01:17:10;3.40;99.90
32612;DHT22;19030;49.478;8.986;2022-11-25T01:19:11;3.40;99.90
32612;DHT22;19030;49.478;8.986;2022-11-25T01:21:15;3.40;99.90
32612;DHT22;19030;49.478;8.986;2022-11-25T01:23:19;3.50;99.90
32612;DHT22;19030;49.478;8.986;2022-11-25T01:25:19;3.40;99.90
32612;DHT22;19030;49.478;8.986;2022-11-25T01:27:20;3.40;99.90
32612;DHT22;19030;49.478;8.986;2022-11-25T01:29:23;3.40;99.90
32612;DHT22;19030;49.478;8.986;2022-11-25T01:31:25;3.40;99.90
32612;DHT22;19030;49.478;8.986;2022-11-25T01:33:27;3.40;99.90
32612;DHT22;19030;49.478;8.986;2022-11-25T01:35:27;3.40;99.90
32612;DHT22;19030;49.478;8.986;2022-11-25T01:37:28;3.30;99.90
32612;DHT22;19030;49.478;8.986;2022-11-25T01:39:29;3.30;99.90
32612;DHT22;19030;49.478;8.986;2022-11-25T01:41:31;3.30;99.90
32612;DHT22;19030;49.478;8.986;2022-11-25T01:43:32;3.30;99.90
32612;DHT22;19030;49.478;8.986;2022-11-25T01:45:35;3.20;99.90
32612;DHT22;19030;49.478;8.986;2022-11-25T01:47:36;3.30;99.90
32612;DHT22;19030;49.478;8.986;2022-11-25T01:49:55;3.30;99.90
32612;DHT22;19030;49.478;8.986;2022-11-25T01:54:08;3.20;99.90
32612;DHT22;19030;49.478;8.986;2022-11-25T01:56:10;3.20;99.90
32612;DHT22;19030;49.478;8.986;2022-11-25T01:58:15;3.20;99.90
32612;DHT22;19030;49.478;8.986;2022-11-25T02:00:17;3.20;99.90
32612;DHT22;19030;49.478;8.986;2022-11-25T02:02:19;3.20;99.90
32612;DHT22;19030;49.478;8.986;2022-11-25T02:04:23;3.20;99.90
32612;DHT22;19030;49.478;8.986;2022-11-25T02:06:31;3.20;99.90
32612;DHT22;19030;49.478;8.986;2022-11-25T02:11:34;3.10;99.90
32612;DHT22;19030;49.478;8.986;2022-11-25T02:13:39;3.10;99.90
32612;DHT22;19030;49.478;8.986;2022-11-25T02:15:40;3.10;99.90
32612;DHT22;19030;49.478;8.986;2022-11-25T02:17:41;3.10;99.90
32612;DHT22;19030;49.478;8.986;2022-11-25T02:22:02;3.00;99.90
32612;DHT22;19030;49.478;8.986;2022-11-25T02:24:31;3.00;99.90
32612;DHT22;19030;49.478;8.986;2022-11-25T02:26:35;3.00;99.90
32612;DHT22;19030;49.478;8.986;2022-11-25T02:28:36;3.00;99.90
32612;DHT22;19030;49.478;8.986;2022-11-25T02:30:40;3.00;99.90
32612;DHT22;19030;49.478;8.986;2022-11-25T02:32:45;2.90;99.90
32612;DHT22;19030;49.478;8.986;2022-11-25T02:34:47;2.90;99.90
32612;DHT22;19030;49.478;8.986;2022-11-25T02:36:48;3.00;99.90
32612;DHT22;19030;49.478;8.986;2022-11-25T02:41:05;2.90;99.90
32612;DHT22;19030;49.478;8.986;2022-11-25T02:43:07;3.00;99.90
32612;DHT22;19030;49.478;8.986;2022-11-25T02:45:10;3.00;99.90
32612;DHT22;19030;49.478;8.986;2022-11-25T02:47:12;3.00;99.90
32612;DHT22;19030;49.478;8.986;2022-11-25T02:49:13;3.00;99.90
32612;DHT22;19030;49.478;8.986;2022-11-25T02:51:18;3.00;99.90
32612;DHT22;19030;49.478;8.986;2022-11-25T02:53:20;3.10;99.90
32612;DHT22;19030;49.478;8.986;2022-11-25T02:55:20;3.00;99.90
32612;DHT22;19030;49.478;8.986;2022-11-25T02:57:21;3.00;99.90
32612;DHT22;19030;49.478;8.986;2022-11-25T02:59:22;3.00;99.90
32612;DHT22;19030;49.478;8.986;2022-11-25T03:01:23;3.00;99.90
32612;DHT22;19030;49.478;8.986;2022-11-25T03:03:24;3.00;99.90
32612;DHT22;19030;49.478;8.986;2022-11-25T03:05:25;2.90;99.90
32612;DHT22;19030;49.478;8.986;2022-11-25T03:07:25;2.90;99.90
32612;DHT22;19030;49.478;8.986;2022-11-25T03:09:26;3.00;99.90
32612;DHT22;19030;49.478;8.986;2022-11-25T03:11:28;3.00;99.90
32612;DHT22;19030;49.478;8.986;2022-11-25T03:14:01;3.00;99.90
32612;DHT22;19030;49.478;8.986;2022-11-25T03:16:01;2.90;99.90
32612;DHT22;19030;49.478;8.986;2022-11-25T03:18:03;2.80;99.90
32612;DHT22;19030;49.478;8.986;2022-11-25T03:20:05;2.80;99.90
32612;DHT22;19030;49.478;8.986;2022-11-25T03:22:06;2.80;99.90
32612;DHT22;19030;49.478;8.986;2022-11-25T03:24:07;2.80;99.90
32612;DHT22;19030;49.478;8.986;2022-11-25T03:26:07;2.70;99.90
32612;DHT22;19030;49.478;8.986;2022-11-25T03:28:08;2.70;99.90
32612;DHT22;19030;49.478;8.986;2022-11-25T03:30:12;2.80;99.90
32612;DHT22;19030;49.478;8.986;2022-11-25T03:32:14;2.70;99.90
32612;DHT22;19030;49.478;8.986;2022-11-25T03:34:15;2.70;99.90
32612;DHT22;19030;49.478;8.986;2022-11-25T03:36:16;2.70;99.90
32612;DHT22;19030;49.478;8.986;2022-11-25T03:38:17;2.70;99.90
32612;DHT22;19030;49.478;8.986;2022-11-25T03:40:17;2.70;99.90
32612;DHT22;19030;49.478;8.986;2022-11-25T03:42:19;2.70;99.90
32612;DHT22;19030;49.478;8.986;2022-11-25T03:44:19;2.70;99.90
32612;DHT22;19030;49.478;8.986;2022-11-25T03:46:20;2.70;99.90
32612;DHT22;19030;49.478;8.986;2022-11-25T03:48:20;2.70;99.90
32612;DHT22;19030;49.478;8.986;2022-11-25T03:50:21;2.70;99.90
32612;DHT22;19030;49.478;8.986;2022-11-25T03:52:22;2.70;99.90
32612;DHT22;19030;49.478;8.986;2022-11-25T03:54:23;2.70;99.90
32612;DHT22;19030;49.478;8.986;2022-11-25T03:56:42;2.60;99.90
32612;DHT22;19030;49.478;8.986;2022-11-25T03:58:43;2.60;99.90
32612;DHT22;19030;49.478;8.986;2022-11-25T04:00:45;2.60;99.90
32612;DHT22;19030;49.478;8.986;2022-11-25T04:02:45;2.60;99.90
32612;DHT22;19030;49.478;8.986;2022-11-25T04:04:48;2.70;99.90
32612;DHT22;19030;49.478;8.986;2022-11-25T04:06:51;2.70;99.90
32612;DHT22;19030;49.478;8.986;2022-11-25T04:08:51;2.60;99.90
32612;DHT22;19030;49.478;8.986;2022-11-25T04:10:52;2.70;99.90
32612;DHT22;19030;49.478;8.986;2022-11-25T04:12:57;2.70;99.90
32612;DHT22;19030;49.478;8.986;2022-11-25T04:15:08;2.60;99.90
32612;DHT22;19030;49.478;8.986;2022-11-25T04:17:09;2.60;99.90
32612;DHT22;19030;49.478;8.986;2022-11-25T04:19:11;2.60;99.90
32612;DHT22;19030;49.478;8.986;2022-11-25T04:21:12;2.60;99.90
32612;DHT22;19030;49.478;8.986;2022-11-25T04:23:13;2.60;99.90
32612;DHT22;19030;49.478;8.986;2022-11-25T04:25:25;2.60;99.90
32612;DHT22;19030;49.478;8.986;2022-11-25T04:27:26;2.60;99.90
32612;DHT22;19030;49.478;8.986;2022-11-25T04:29:27;2.60;99.90
32612;DHT22;19030;49.478;8.986;2022-11-25T04:31:30;2.60;99.90
32612;DHT22;19030;49.478;8.986;2022-11-25T04:33:31;2.60;99.90
32612;DHT22;19030;49.478;8.986;2022-11-25T04:35:31;2.60;99.90
32612;DHT22;19030;49.478;8.986;2022-11-25T04:37:32;2.50;99.90
32612;DHT22;19030;49.478;8.986;2022-11-25T04:39:33;2.60;99.90
32612;DHT22;19030;49.478;8.986;2022-11-25T04:41:42;2.60;99.90
32612;DHT22;19030;49.478;8.986;2022-11-25T04:43:43;2.60;99.90
32612;DHT22;19030;49.478;8.986;2022-11-25T04:45:47;2.70;99.90
32612;DHT22;19030;49.478;8.986;2022-11-25T04:47:48;2.70;99.90
32612;DHT22;19030;49.478;8.986;2022-11-25T04:49:48;2.70;99.90
32612;DHT22;19030;49.478;8.986;2022-11-25T04:51:50;2.70;99.90
32612;DHT22;19030;49.478;8.986;2022-11-25T04:53:50;2.70;99.90
32612;DHT22;19030;49.478;8.986;2022-11-25T04:55:51;2.70;99.90
32612;DHT22;19030;49.478;8.986;2022-11-25T04:57:53;2.70;99.90
32612;DHT22;19030;49.478;8.986;2022-11-25T04:59:53;2.60;99.90
32612;DHT22;19030;49.478;8.986;2022-11-25T05:01:54;2.60;99.90
32612;DHT22;19030;49.478;8.986;2022-11-25T05:04:05;2.60;99.90
32612;DHT22;19030;49.478;8.986;2022-11-25T05:06:09;2.70;99.90
32612;DHT22;19030;49.478;8.986;2022-11-25T05:08:11;2.70;99.90
32612;DHT22;19030;49.478;8.986;2022-11-25T05:10:14;2.70;99.90
32612;DHT22;19030;49.478;8.986;2022-11-25T05:12:20;2.60;99.90
32612;DHT22;19030;49.478;8.986;2022-11-25T05:14:21;2.60;99.90
32612;DHT22;19030;49.478;8.986;2022-11-25T05:16:24;2.60;99.90
32612;DHT22;19030;49.478;8.986;2022-11-25T05:18:26;2.60;99.90
32612;DHT22;19030;49.478;8.986;2022-11-25T05:20:26;2.60;99.90
32612;DHT22;19030;49.478;8.986;2022-11-25T05:22:29;2.60;99.90
32612;DHT22;19030;49.478;8.986;2022-11-25T05:24:30;2.60;99.90
32612;DHT22;19030;49.478;8.986;2022-11-25T05:26:31;2.60;99.90
32612;DHT22;19030;49.478;8.986;2022-11-25T05:28:33;2.60;99.90
32612;DHT22;19030;49.478;8.986;2022-11-25T05:30:34;2.60;99.90
32612;DHT22;19030;49.478;8.986;2022-11-25T05:32:35;2.60;99.90
32612;DHT22;19030;49.478;8.986;2022-11-25T05:34:41;2.60;99.90
32612;DHT22;19030;49.478;8.986;2022-11-25T05:36:42;2.60;99.90
32612;DHT22;19030;49.478;8.986;2022-11-25T05:38:43;2.60;99.90
32612;DHT22;19030;49.478;8.986;2022-11-25T05:40:47;2.60;99.90
32612;DHT22;19030;49.478;8.986;2022-11-25T05:42:49;2.60;99.90
32612;DHT22;19030;49.478;8.986;2022-11-25T05:44:52;2.60;99.90
32612;DHT22;19030;49.478;8.986;2022-11-25T05:46:52;2.60;99.90
32612;DHT22;19030;49.478;8.986;2022-11-25T05:48:54;2.60;99.90
32612;DHT22;19030;49.478;8.986;2022-11-25T05:50:59;2.60;99.90
32612;DHT22;19030;49.478;8.986;2022-11-25T05:53:01;2.60;99.90
32612;DHT22;19030;49.478;8.986;2022-11-25T05:55:02;2.50;99.90
32612;DHT22;19030;49.478;8.986;2022-11-25T05:57:02;2.50;99.90
32612;DHT22;19030;49.478;8.986;2022-11-25T05:59:13;2.50;99.90
32612;DHT22;19030;49.478;8.986;2022-11-25T06:01:25;2.50;99.90
32612;DHT22;19030;49.478;8.986;2022-11-25T06:03:26;2.50;99.90
32612;DHT22;19030;49.478;8.986;2022-11-25T06:05:27;2.50;99.90
32612;DHT22;19030;49.478;8.986;2022-11-25T06:07:28;2.50;99.90
32612;DHT22;19030;49.478;8.986;2022-11-25T06:09:28;2.50;99.90
32612;DHT22;19030;49.478;8.986;2022-11-25T06:11:29;2.50;99.90
32612;DHT22;19030;49.478;8.986;2022-11-25T06:13:30;2.50;99.90
32612;DHT22;19030;49.478;8.986;2022-11-25T06:15:31;2.50;99.90
32612;DHT22;19030;49.478;8.986;2022-11-25T06:17:33;2.40;99.90
32612;DHT22;19030;49.478;8.986;2022-11-25T06:19:41;2.40;99.90
32612;DHT22;19030;49.478;8.986;2022-11-25T06:21:41;2.40;99.90
32612;DHT22;19030;49.478;8.986;2022-11-25T06:23:42;2.50;99.90
32612;DHT22;19030;49.478;8.986;2022-11-25T06:25:45;2.50;99.90
32612;DHT22;19030;49.478;8.986;2022-11-25T06:27:46;2.50;99.90
32612;DHT22;19030;49.478;8.986;2022-11-25T06:29:47;2.40;99.90
32612;DHT22;19030;49.478;8.986;2022-11-25T06:31:50;2.40;99.90
32612;DHT22;19030;49.478;8.986;2022-11-25T06:34:11;2.40;99.90
32612;DHT22;19030;49.478;8.986;2022-11-25T06:36:14;2.40;99.90
32612;DHT22;19030;49.478;8.986;2022-11-25T06:38:17;2.50;99.90
32612;DHT22;19030;49.478;8.986;2022-11-25T06:40:18;2.50;99.90
32612;DHT22;19030;49.478;8.986;2022-11-25T06:42:18;2.50;99.90
32612;DHT22;19030;49.478;8.986;2022-11-25T06:44:19;2.50;99.90
32612;DHT22;19030;49.478;8.986;2022-11-25T06:46:20;2.50;99.90
32612;DHT22;19030;49.478;8.986;2022-11-25T06:48:20;2.40;99.90
32612;DHT22;19030;49.478;8.986;2022-11-25T06:50:21;2.50;99.90
32612;DHT22;19030;49.478;8.986;2022-11-25T06:52:21;2.40;99.90
32612;DHT22;19030;49.478;8.986;2022-11-25T06:54:22;2.40;99.90
32612;DHT22;19030;49.478;8.986;2022-11-25T06:56:25;2.40;99.90
32612;DHT22;19030;49.478;8.986;2022-11-25T06:58:26;2.40;99.90
32612;DHT22;19030;49.478;8.986;2022-11-25T07:00:26;2.40;99.90
32612;DHT22;19030;49.478;8.986;2022-11-25T07:02:27;2.40;99.90
32612;DHT22;19030;49.478;8.986;2022-11-25T07:04:28;2.50;99.90
32612;DHT22;19030;49.478;8.986;2022-11-25T07:06:30;2.50;99.90
32612;DHT22;19030;49.478;8.986;2022-11-25T07:08:31;2.50;99.90
32612;DHT22;19030;49.478;8.986;2022-11-25T07:10:33;2.50;99.90
32612;DHT22;19030;49.478;8.986;2022-11-25T07:12:33;2.50;99.90
32612;DHT22;19030;49.478;8.986;2022-11-25T07:14:34;2.60;99.90
32612;DHT22;19030;49.478;8.986;2022-11-25T07:16:37;2.70;99.90
32612;DHT22;19030;49.478;8.986;2022-11-25T07:18:39;2.80;99.90
32612;DHT22;19030;49.478;8.986;2022-11-25T07:20:40;2.90;99.90
32612;DHT22;19030;49.478;8.986;2022-11-25T07:22:40;3.00;99.90
32612;DHT22;19030;49.478;8.986;2022-11-25T07:24:41;3.10;99.90
32612;DHT22;19030;49.478;8.986;2022-11-25T07:26:42;3.20;99.90
32612;DHT22;19030;49.478;8.986;2022-11-25T07:28:44;3.40;99.90
32612;DHT22;19030;49.478;8.986;2022-11-25T07:30:44;3.50;99.90
32612;DHT22;19030;49.478;8.986;2022-11-25T07:32:45;3.60;99.90
32612;DHT22;19030;49.478;8.986;2022-11-25T07:34:49;3.70;99.90
32612;DHT22;19030;49.478;8.986;2022-11-25T07:36:49;3.90;99.90
32612;DHT22;19030;49.478;8.986;2022-11-25T07:38:50;4.00;99.90
32612;DHT22;19030;49.478;8.986;2022-11-25T07:40:51;4.00;99.90
32612;DHT22;19030;49.478;8.986;2022-11-25T07:42:51;3.90;99.90
32612;DHT22;19030;49.478;8.986;2022-11-25T07:44:52;3.90;99.90
32612;DHT22;19030;49.478;8.986;2022-11-25T07:47:11;3.90;99.90
32612;DHT22;19030;49.478;8.986;2022-11-25T07:49:20;3.80;99.90
32612;DHT22;19030;49.478;8.986;2022-11-25T07:51:36;3.70;99.90
32612;DHT22;19030;49.478;8.986;2022-11-25T07:53:37;3.70;99.90
32612;DHT22;19030;49.478;8.986;2022-11-25T07:55:37;3.60;99.90
32612;DHT22;19030;49.478;8.986;2022-11-25T07:57:38;3.60;99.90
32612;DHT22;19030;49.478;8.986;2022-11-25T07:59:38;3.60;99.90
32612;DHT22;19030;49.478;8.986;2022-11-25T08:01:41;3.60;99.90
32612;DHT22;19030;49.478;8.986;2022-11-25T08:03:42;3.50;99.90
32612;DHT22;19030;49.478;8.986;2022-11-25T08:05:43;3.50;99.90
32612;DHT22;19030;49.478;8.986;2022-11-25T08:07:44;3.50;99.90
32612;DHT22;19030;49.478;8.986;2022-11-25T08:09:44;3.40;99.90
32612;DHT22;19030;49.478;8.986;2022-11-25T08:11:46;3.40;99.90
32612;DHT22;19030;49.478;8.986;2022-11-25T08:13:47;3.50;99.90
32612;DHT22;19030;49.478;8.986;2022-11-25T08:15:48;3.50;99.90
32612;DHT22;19030;49.478;8.986;2022-11-25T08:17:48;3.60;99.90
32612;DHT22;19030;49.478;8.986;2022-11-25T08:19:51;3.70;99.90
32612;DHT22;19030;49.478;8.986;2022-11-25T08:21:52;3.70;99.90
32612;DHT22;19030;49.478;8.986;2022-11-25T08:23:54;3.80;99.90
32612;DHT22;19030;49.478;8.986;2022-11-25T08:25:55;3.90;99.90
32612;DHT22;19030;49.478;8.986;2022-11-25T08:27:57;4.00;99.90
32612;DHT22;19030;49.478;8.986;2022-11-25T08:29:58;4.10;99.90
32612;DHT22;19030;49.478;8.986;2022-11-25T08:31:59;4.20;99.90
32612;DHT22;19030;49.478;8.986;2022-11-25T08:34:01;4.20;99.90
32612;DHT22;19030;49.478;8.986;2022-11-25T08:36:02;4.20;99.90
32612;DHT22;19030;49.478;8.986;2022-11-25T08:38:11;4.30;99.90
32612;DHT22;19030;49.478;8.986;2022-11-25T08:40:12;4.30;99.90
32612;DHT22;19030;49.478;8.986;2022-11-25T08:42:13;4.30;99.90
32612;DHT22;19030;49.478;8.986;2022-11-25T08:44:13;4.30;99.90
32612;DHT22;19030;49.478;8.986;2022-11-25T08:46:18;4.30;99.90
32612;DHT22;19030;49.478;8.986;2022-11-25T08:48:19;4.30;99.90
32612;DHT22;19030;49.478;8.986;2022-11-25T08:50:21;4.30;99.90
32612;DHT22;19030;49.478;8.986;2022-11-25T08:52:23;4.30;99.90
32612;DHT22;19030;49.478;8.986;2022-11-25T08:54:24;4.30;99.90
32612;DHT22;19030;49.478;8.986;2022-11-25T08:56:25;4.40;99.90
32612;DHT22;19030;49.478;8.986;2022-11-25T08:58:26;4.40;99.90
32612;DHT22;19030;49.478;8.986;2022-11-25T09:00:26;4.30;99.90
32612;DHT22;19030;49.478;8.986;2022-11-25T09:02:27;4.40;99.90
32612;DHT22;19030;49.478;8.986;2022-11-25T09:04:27;4.40;99.90
32612;DHT22;19030;49.478;8.986;2022-11-25T09:06:28;4.40;99.90
32612;DHT22;19030;49.478;8.986;2022-11-25T09:08:29;4.50;99.90
32612;DHT22;19030;49.478;8.986;2022-11-25T09:10:31;4.60;99.90
32612;DHT22;19030;49.478;8.986;2022-11-25T09:12:32;4.70;99.90
32612;DHT22;19030;49.478;8.986;2022-11-25T09:14:32;4.70;99.90
32612;DHT22;19030;49.478;8.986;2022-11-25T09:16:33;4.70;99.90
32612;DHT22;19030;49.478;8.986;2022-11-25T09:18:33;4.80;99.90
32612;DHT22;19030;49.478;8.986;2022-11-25T09:20:38;4.80;99.90
32612;DHT22;19030;49.478;8.986;2022-11-25T09:22:39;4.70;99.90
32612;DHT22;19030;49.478;8.986;2022-11-25T09:24:40;4.70;99.90
32612;DHT22;19030;49.478;8.986;2022-11-25T09:26:43;4.70;99.90
32612;DHT22;19030;49.478;8.986;2022-11-25T09:28:44;4.80;99.90
32612;DHT22;19030;49.478;8.986;2022-11-25T09:30:45;4.90;99.90
32612;DHT22;19030;49.478;8.986;2022-11-25T09:32:48;4.90;99.90
32612;DHT22;19030;49.478;8.986;2022-11-25T09:34:49;5.00;99.90
32612;DHT22;19030;49.478;8.986;2022-11-25T09:36:50;5.00;99.90
32612;DHT22;19030;49.478;8.986;2022-11-25T09:38:51;5.00;99.90
32612;DHT22;19030;49.478;8.986;2022-11-25T09:41:07;5.00;99.90
32612;DHT22;19030;49.478;8.986;2022-11-25T09:43:34;5.00;99.90
32612;DHT22;19030;49.478;8.986;2022-11-25T09:55:10;5.00;99.90
32612;DHT22;19030;49.478;8.986;2022-11-25T09:57:24;5.00;99.90
32612;DHT22;19030;49.478;8.986;2022-11-25T10:00:04;5.10;99.90
32612;DHT22;19030;49.478;8.986;2022-11-25T10:02:24;5.10;99.90
32612;DHT22;19030;49.478;8.986;2022-11-25T10:04:44;5.10;99.90
32612;DHT22;19030;49.478;8.986;2022-11-25T10:06:51;5.20;99.90
32612;DHT22;19030;49.478;8.986;2022-11-25T10:09:03;5.20;99.90
32612;DHT22;19030;49.478;8.986;2022-11-25T10:15:49;5.30;99.90
32612;DHT22;19030;49.478;8.986;2022-11-25T10:17:54;5.40;99.90
32612;DHT22;19030;49.478;8.986;2022-11-25T10:22:25;5.40;99.90
32612;DHT22;19030;49.478;8.986;2022-11-25T10:24:26;5.50;99.90
32612;DHT22;19030;49.478;8.986;2022-11-25T10:26:34;5.50;99.90
32612;DHT22;19030;49.478;8.986;2022-11-25T10:28:37;5.50;99.90
32612;DHT22;19030;49.478;8.986;2022-11-25T10:30:44;5.50;99.90
32612;DHT22;19030;49.478;8.986;2022-11-25T10:33:38;5.60;99.90
32612;DHT22;19030;49.478;8.986;2022-11-25T10:37:50;5.70;99.90
32612;DHT22;19030;49.478;8.986;2022-11-25T10:39:54;5.80;99.90
32612;DHT22;19030;49.478;8.986;2022-11-25T10:42:01;5.90;99.90
32612;DHT22;19030;49.478;8.986;2022-11-25T10:44:11;6.00;99.90
32612;DHT22;19030;49.478;8.986;2022-11-25T10:48:53;6.10;99.90
32612;DHT22;19030;49.478;8.986;2022-11-25T10:51:05;6.10;99.90
32612;DHT22;19030;49.478;8.986;2022-11-25T10:57:17;6.10;99.90
32612;DHT22;19030;49.478;8.986;2022-11-25T11:01:28;6.20;99.90
32612;DHT22;19030;49.478;8.986;2022-11-25T11:03:29;6.20;99.90
32612;DHT22;19030;49.478;8.986;2022-11-25T11:05:30;6.30;99.90
32612;DHT22;19030;49.478;8.986;2022-11-25T11:07:34;6.40;99.90
32612;DHT22;19030;49.478;8.986;2022-11-25T11:09:37;6.50;99.90
32612;DHT22;19030;49.478;8.986;2022-11-25T11:11:48;6.60;99.90
32612;DHT22;19030;49.478;8.986;2022-11-25T11:13:58;6.70;99.90
32612;DHT22;19030;49.478;8.986;2022-11-25T11:15:59;6.70;99.90
32612;DHT22;19030;49.478;8.986;2022-11-25T11:18:19;6.70;99.90
32612;DHT22;19030;49.478;8.986;2022-11-25T11:20:27;6.70;99.90
32612;DHT22;19030;49.478;8.986;2022-11-25T11:22:27;6.70;99.90
32612;DHT22;19030;49.478;8.986;2022-11-25T11:24:32;6.80;99.90
32612;DHT22;19030;49.478;8.986;2022-11-25T11:26:37;6.80;99.90
32612;DHT22;19030;49.478;8.986;2022-11-25T11:28:39;6.80;99.90
32612;DHT22;19030;49.478;8.986;2022-11-25T11:30:54;6.80;99.90
32612;DHT22;19030;49.478;8.986;2022-11-25T11:32:58;6.80;99.90
32612;DHT22;19030;49.478;8.986;2022-11-25T11:37:51;6.80;99.90
32612;DHT22;19030;49.478;8.986;2022-11-25T11:40:26;6.80;99.90
32612;DHT22;19030;49.478;8.986;2022-11-25T11:47:29;6.90;99.90
32612;DHT22;19030;49.478;8.986;2022-11-25T11:49:44;7.00;99.90
32612;DHT22;19030;49.478;8.986;2022-11-25T11:51:59;7.10;99.90
32612;DHT22;19030;49.478;8.986;2022-11-25T11:54:21;7.10;99.90
32612;DHT22;19030;49.478;8.986;2022-11-25T11:59:02;7.20;99.90
32612;DHT22;19030;49.478;8.986;2022-11-25T12:03:38;7.20;99.90
32612;DHT22;19030;49.478;8.986;2022-11-25T12:05:40;7.30;99.90
32612;DHT22;19030;49.478;8.986;2022-11-25T12:12:16;7.70;99.90
32612;DHT22;19030;49.478;8.986;2022-11-25T12:16:51;7.60;99.90
32612;DHT22;19030;49.478;8.986;2022-11-25T12:19:18;7.60;99.90
32612;DHT22;19030;49.478;8.986;2022-11-25T12:25:44;7.80;99.90
32612;DHT22;19030;49.478;8.986;2022-11-25T12:28:02;7.90;99.90
32612;DHT22;19030;49.478;8.986;2022-11-25T12:34:40;8.00;99.90
32612;DHT22;19030;49.478;8.986;2022-11-25T12:36:46;8.00;99.90
32612;DHT22;19030;49.478;8.986;2022-11-25T12:39:10;8.10;99.90
32612;DHT22;19030;49.478;8.986;2022-11-25T12:43:30;8.20;99.90
32612;DHT22;19030;49.478;8.986;2022-11-25T12:45:33;8.30;99.90
32612;DHT22;19030;49.478;8.986;2022-11-25T12:47:33;8.30;99.90
32612;DHT22;19030;49.478;8.986;2022-11-25T12:49:41;8.30;99.90
32612;DHT22;19030;49.478;8.986;2022-11-25T12:52:01;8.40;99.90
32612;DHT22;19030;49.478;8.986;2022-11-25T13:01:42;8.80;99.90
32612;DHT22;19030;49.478;8.986;2022-11-25T13:04:06;8.70;99.90
32612;DHT22;19030;49.478;8.986;2022-11-25T13:08:37;8.40;99.90
32612;DHT22;19030;49.478;8.986;2022-11-25T13:15:37;8.10;99.90
32612;DHT22;19030;49.478;8.986;2022-11-25T13:17:41;8.00;99.90
32612;DHT22;19030;49.478;8.986;2022-11-25T13:19:42;7.90;99.90
32612;DHT22;19030;49.478;8.986;2022-11-25T13:23:59;7.80;99.90
32612;DHT22;19030;49.478;8.986;2022-11-25T13:28:36;8.00;99.90
32612;DHT22;19030;49.478;8.986;2022-11-25T13:30:38;8.10;99.90
32612;DHT22;19030;49.478;8.986;2022-11-25T13:32:39;8.30;99.90
32612;DHT22;19030;49.478;8.986;2022-11-25T13:34:40;8.40;99.90
32612;DHT22;19030;49.478;8.986;2022-11-25T13:36:49;8.50;99.90
32612;DHT22;19030;49.478;8.986;2022-11-25T13:40:58;8.70;99.90
32612;DHT22;19030;49.478;8.986;2022-11-25T13:42:59;8.70;99.90
32612;DHT22;19030;49.478;8.986;2022-11-25T13:45:00;8.80;99.90
32612;DHT22;19030;49.478;8.986;2022-11-25T13:47:39;8.90;99.90
32612;DHT22;19030;49.478;8.986;2022-11-25T13:49:59;8.90;99.90
32612;DHT22;19030;49.478;8.986;2022-11-25T13:54:05;8.80;99.90
32612;DHT22;19030;49.478;8.986;2022-11-25T13:56:21;8.80;99.90
32612;DHT22;19030;49.478;8.986;2022-11-25T13:58:25;8.70;99.90
32612;DHT22;19030;49.478;8.986;2022-11-25T14:02:38;8.60;99.90
32612;DHT22;19030;49.478;8.986;2022-11-25T14:05:15;8.60;99.90
32612;DHT22;19030;49.478;8.986;2022-11-25T14:09:55;8.50;99.90
32612;DHT22;19030;49.478;8.986;2022-11-25T14:27:44;8.90;99.90
32612;DHT22;19030;49.478;8.986;2022-11-25T14:29:50;8.90;99.90
32612;DHT22;19030;49.478;8.986;2022-11-25T14:31:52;8.90;99.90
32612;DHT22;19030;49.478;8.986;2022-11-25T14:33:58;9.00;99.90
32612;DHT22;19030;49.478;8.986;2022-11-25T14:36:12;8.90;99.90
32612;DHT22;19030;49.478;8.986;2022-11-25T14:38:23;9.00;99.90
32612;DHT22;19030;49.478;8.986;2022-11-25T14:40:37;9.00;99.90
32612;DHT22;19030;49.478;8.986;2022-11-25T14:42:44;8.90;99.90
32612;DHT22;19030;49.478;8.986;2022-11-25T14:44:50;8.80;99.90
32612;DHT22;19030;49.478;8.986;2022-11-25T14:49:00;8.70;99.90
32612;DHT22;19030;49.478;8.986;2022-11-25T14:51:05;8.60;99.90
32612;DHT22;19030;49.478;8.986;2022-11-25T14:53:10;8.50;99.90
32612;DHT22;19030;49.478;8.986;2022-11-25T14:55:11;8.50;99.90
32612;DHT22;19030;49.478;8.986;2022-11-25T14:57:12;8.40;99.90
32612;DHT22;19030;49.478;8.986;2022-11-25T14:59:13;8.40;99.90
32612;DHT22;19030;49.478;8.986;2022-11-25T15:01:50;8.30;99.90
32612;DHT22;19030;49.478;8.986;2022-11-25T15:04:00;8.30;99.90
32612;DHT22;19030;49.478;8.986;2022-11-25T15:06:05;8.20;99.90
32612;DHT22;19030;49.478;8.986;2022-11-25T15:08:10;8.20;99.90
32612;DHT22;19030;49.478;8.986;2022-11-25T15:10:32;8.20;99.90
32612;DHT22;19030;49.478;8.986;2022-11-25T15:12:33;8.20;99.90